Terminal Aerodrome Forecast
Issued by NWS Norman, OK

Home | Current Version | Previous Version | Text Only | Print | Product List | Glossary On
Versions: 1 2 3 4 5 6 7 8 9 10 11 12 13 14 15 16 17 18 19 20 21 22 23 24 25 26 27 28 29
000
FTUS44 KOUN 200522
TAFSPS
TAF
KSPS 200522Z 2006/2106 12008KT P6SM BKN040
     FM201000 12006KT 5SM BR BKN012
     FM201800 18009KT P6SM BKN030 PROB30 2018/2022 3SM TSRA OVC020CB
     FM210100 14010KT P6SM SCT040 BKN120=

USA.gov is the U.S. government's official web portal to all federal, state and local government web resources and services.